^^
Meteo Knjazevac Station Historical Data
Daily Summary for August 12, 2021 Units:  Metric    English   Both
Daily Weekly Monthly Yearly Custom
  High: Low: Average:
Temperature: 30.4 °C 6.8 °C 18.2 °C
Dew Point: 12.7 °C 4.4 °C 8.9 °C
Humidity: 88% 33% 59%
Wind Speed: 12.9km/h 0km/h 2.3km/h
Wind Gust: 22.5km/h - -
Wind- - SW
Pressure: 1018.8 hPa 1015.1 hPa -
Precipitation: 0 mm    
Historical Graphs
 
 
Tabular Data for August 12, 2021
Time Temperature Dew Point Pressure Wind Wind Speed Wind Gust Humidity Rainfall Rate (Hourly) solar Conditions
00:00 12.8 °C 7.2 °C 1018.2 hPa Calm   3.2 km/h 69% 0 mm 0 W/m2
00:10 12.3 °C 6.8 °C 1018.2 hPa WNW 1.6 km/h 3.2 km/h 69% 0 mm 0 W/m2
00:20 11.9 °C 6.8 °C 1018.2 hPa West 3.2 km/h 6.4 km/h 71% 0 mm 0 W/m2
00:30 11.8 °C 6.9 °C 1018.2 hPa NW 1.6 km/h 6.4 km/h 72% 0 mm 0 W/m2
00:40 11.6 °C 6.7 °C 1018.2 hPa Calm   4.8 km/h 72% 0 mm 0 W/m2
00:50 11.4 °C 6.7 °C 1018.2 hPa NW 1.6 km/h 3.2 km/h 73% 0 mm 0 W/m2
01:00 11.2 °C 6.6 °C 1018.2 hPa NW 1.6 km/h 4.8 km/h 73% 0 mm 0 W/m2
01:10 11.1 °C 6.6 °C 1018.2 hPa West 1.6 km/h 4.8 km/h 74% 0 mm 0 W/m2
01:20 10.8 °C 6.3 °C 1018.2 hPa NW 1.6 km/h 4.8 km/h 74% 0 mm 0 W/m2
01:30 10.6 °C 6.2 °C 1018.2 hPa Calm   3.2 km/h 74% 0 mm 0 W/m2
01:40 10.4 °C 6.2 °C 1018.2 hPa Calm   1.6 km/h 75% 0 mm 0 W/m2
01:50 10.1 °C 6.1 °C 1018.2 hPa Calm   3.2 km/h 76% 0 mm 0 W/m2
02:00 10 °C 6.2 °C 1018.2 hPa NNW 1.6 km/h 3.2 km/h 77% 0 mm 0 W/m2
02:10 9.8 °C 5.9 °C 1018.2 hPa Calm   3.2 km/h 77% 0 mm 0 W/m2
02:20 9.4 °C 5.6 °C 1018.2 hPa WNW 1.6 km/h 3.2 km/h 77% 0 mm 0 W/m2
02:30 9.2 °C 5.6 °C 1018.5 hPa West 3.2 km/h 4.8 km/h 78% 0 mm 0 W/m2
02:40 9.2 °C 5.7 °C 1018.5 hPa West 1.6 km/h 4.8 km/h 79% 0 mm 0 W/m2
02:50 9 °C 5.6 °C 1018.2 hPa Calm   3.2 km/h 79% 0 mm 0 W/m2
03:00 8.8 °C 5.3 °C 1018.2 hPa NW 1.6 km/h 3.2 km/h 79% 0 mm 0 W/m2
03:10 8.6 °C 5.3 °C 1018.2 hPa NW 1.6 km/h 3.2 km/h 80% 0 mm 0 W/m2
03:20 8.4 °C 5.2 °C 1018.2 hPa NW 1.6 km/h 4.8 km/h 80% 0 mm 0 W/m2
03:30 8.4 °C 5.2 °C 1018.2 hPa Calm   1.6 km/h 80% 0 mm 0 W/m2
03:40 8.3 °C 5.1 °C 1018.2 hPa West 1.6 km/h 3.2 km/h 80% 0 mm 0 W/m2
03:50 8.2 °C 5.1 °C 1018.2 hPa WNW 1.6 km/h 3.2 km/h 81% 0 mm 0 W/m2
04:00 8 °C 4.9 °C 1018.5 hPa Calm   1.6 km/h 81% 0 mm 0 W/m2
04:10 7.9 °C 5.2 °C 1018.2 hPa Calm   3.2 km/h 83% 0 mm 0 W/m2
04:20 7.8 °C 4.9 °C 1018.5 hPa Calm   3.2 km/h 82% 0 mm 0 W/m2
04:30 7.8 °C 5.1 °C 1018.5 hPa Calm   4.8 km/h 83% 0 mm 0 W/m2
04:40 7.6 °C 4.9 °C 1018.5 hPa NW 1.6 km/h 3.2 km/h 83% 0 mm 0 W/m2
04:50 7.4 °C 4.7 °C 1018.5 hPa WNW 1.6 km/h 3.2 km/h 83% 0 mm 0 W/m2
05:00 7.3 °C 4.6 °C 1018.5 hPa WNW 1.6 km/h 3.2 km/h 83% 0 mm 0 W/m2
05:10 7.2 °C 4.4 °C 1018.5 hPa West 1.6 km/h 3.2 km/h 83% 0 mm 0 W/m2
05:20 7 °C 4.5 °C 1018.5 hPa WSW 3.2 km/h 4.8 km/h 84% 0 mm 0 W/m2
05:30 6.9 °C 4.6 °C 1018.5 hPa WNW 1.6 km/h 6.4 km/h 85% 0 mm 0 W/m2
05:40 7 °C 4.8 °C 1018.5 hPa WNW 3.2 km/h 8 km/h 86% 0 mm 0 W/m2
05:50 7 °C 4.7 °C 1018.5 hPa Calm   4.8 km/h 85% 0 mm 0 W/m2
06:00 6.9 °C 4.6 °C 1018.5 hPa NW 1.6 km/h 3.2 km/h 85% 0 mm 0 W/m2
06:10 6.8 °C 4.7 °C 1018.5 hPa WNW 1.6 km/h 3.2 km/h 86% 0 mm 5 W/m2
06:20 6.8 °C 4.6 °C 1018.5 hPa WNW 3.2 km/h 8 km/h 86% 0 mm 12 W/m2
06:30 6.9 °C 4.7 °C 1018.5 hPa Calm   4.8 km/h 86% 0 mm 21 W/m2
06:40 6.8 °C 4.4 °C 1018.5 hPa NW 1.6 km/h 3.2 km/h 85% 0 mm 30 W/m2
06:50 6.8 °C 4.6 °C 1018.5 hPa West 1.6 km/h 3.2 km/h 86% 0 mm 37 W/m2
07:00 6.8 °C 4.4 °C 1018.8 hPa NW 1.6 km/h 3.2 km/h 85% 0 mm 77 W/m2
07:10 6.8 °C 4.6 °C 1018.8 hPa Calm   3.2 km/h 86% 0 mm 107 W/m2
07:20 7 °C 4.8 °C 1018.8 hPa NW 1.6 km/h 3.2 km/h 86% 0 mm 136 W/m2
07:30 7.3 °C 5.4 °C 1018.8 hPa Calm   3.2 km/h 88% 0 mm 166 W/m2
07:40 7.6 °C 5.7 °C 1018.8 hPa NW 1.6 km/h 3.2 km/h 88% 0 mm 198 W/m2
07:50 8.1 °C 6.2 °C 1018.8 hPa NW 1.6 km/h 3.2 km/h 88% 0 mm 229 W/m2
08:00 8.4 °C 6.6 °C 1018.8 hPa Calm   3.2 km/h 88% 0 mm 263 W/m2
08:10 8.9 °C 6.7 °C 1018.8 hPa Calm   1.6 km/h 86% 0 mm 296 W/m2
08:20 9.4 °C 7.1 °C 1018.8 hPa WSW 1.6 km/h 3.2 km/h 85% 0 mm 330 W/m2
08:30 10.3 °C 7.5 °C 1018.8 hPa Calm   4.8 km/h 83% 0 mm 363 W/m2
08:40 11.7 °C 8.2 °C 1018.5 hPa WNW 1.6 km/h 3.2 km/h 79% 0 mm 394 W/m2
08:50 13.1 °C 8.7 °C 1018.5 hPa West 1.6 km/h 3.2 km/h 75% 0 mm 135 W/m2
09:00 14.3 °C 9.3 °C 1018.5 hPa WNW 1.6 km/h 4.8 km/h 72% 0 mm 292 W/m2
09:10 15.4 °C 9.8 °C 1018.5 hPa WSW 1.6 km/h 4.8 km/h 69% 0 mm 485 W/m2
09:20 16.6 °C 9.9 °C 1018.5 hPa West 3.2 km/h 6.4 km/h 65% 0 mm 520 W/m2
09:30 17.6 °C 10.4 °C 1018.5 hPa Calm   4.8 km/h 63% 0 mm 547 W/m2
09:40 18.4 °C 10.6 °C 1018.5 hPa West 1.6 km/h 6.4 km/h 60% 0 mm 571 W/m2
09:50 19.4 °C 10.9 °C 1018.5 hPa SW 1.6 km/h 6.4 km/h 58% 0 mm 595 W/m2
10:00 20.3 °C 11.2 °C 1018.5 hPa NW 1.6 km/h 6.4 km/h 56% 0 mm 617 W/m2
10:10 21.3 °C 11.3 °C 1018.2 hPa SW 3.2 km/h 8 km/h 53% 0 mm 638 W/m2
10:20 21.9 °C 11.7 °C 1018.2 hPa SW 1.6 km/h 3.2 km/h 52% 0 mm 658 W/m2
10:30 22.8 °C 11.8 °C 1017.8 hPa ESE 4.8 km/h 8 km/h 50% 0 mm 676 W/m2
10:40 23.3 °C 12.3 °C 1017.8 hPa South 1.6 km/h 8 km/h 50% 0 mm 693 W/m2
10:50 23.9 °C 11.9 °C 1017.8 hPa NNE 1.6 km/h 6.4 km/h 47% 0 mm 677 W/m2
11:00 24.4 °C 12.7 °C 1017.8 hPa NE 3.2 km/h 6.4 km/h 48% 0 mm 723 W/m2
11:10 25.2 °C 12.1 °C 1017.5 hPa ENE 4.8 km/h 9.7 km/h 44% 0 mm 553 W/m2
11:20 25.7 °C 12.2 °C 1017.5 hPa ESE 4.8 km/h 9.7 km/h 43% 0 mm 220 W/m2
11:30 26.1 °C 11.8 °C 1017.5 hPa SSE 1.6 km/h 9.7 km/h 41% 0 mm 350 W/m2
11:40 26.6 °C 11.9 °C 1017.2 hPa North 3.2 km/h 9.7 km/h 40% 0 mm 760 W/m2
11:50 27.2 °C 12.4 °C 1017.2 hPa South 3.2 km/h 6.4 km/h 40% 0 mm 771 W/m2
12:00 27.6 °C 12 °C 1017.2 hPa SSE 1.6 km/h 8 km/h 38% 0 mm 776 W/m2
12:10 27.9 °C 11.8 °C 1017.2 hPa NNE 1.6 km/h 12.9 km/h 37% 0 mm 779 W/m2
12:20 28 °C 11.6 °C 1016.8 hPa NE 1.6 km/h 12.9 km/h 36% 0 mm 781 W/m2
12:30 28.3 °C 11.4 °C 1016.8 hPa NNE 4.8 km/h 16.1 km/h 35% 0 mm 781 W/m2
12:40 28.8 °C 11.8 °C 1016.5 hPa ENE 3.2 km/h 14.5 km/h 35% 0 mm 779 W/m2
12:50 29.1 °C 11.6 °C 1016.5 hPa ENE 4.8 km/h 11.3 km/h 34% 0 mm 776 W/m2
13:00 29.4 °C 11.9 °C 1016.5 hPa NNE 8 km/h 12.9 km/h 34% 0 mm 771 W/m2
13:10 29.7 °C 12.2 °C 1016.5 hPa NNE 8 km/h 22.5 km/h 34% 0 mm 764 W/m2
13:20 29.7 °C 12.2 °C 1016.1 hPa North 12.9 km/h 19.3 km/h 34% 0 mm 756 W/m2
13:30 29.9 °C 12.3 °C 1016.1 hPa North 4.8 km/h 22.5 km/h 34% 0 mm 747 W/m2
13:40 30.1 °C 12.1 °C 1016.1 hPa North 8 km/h 17.7 km/h 33% 0 mm 735 W/m2
13:50 30 °C 11.9 °C 1015.8 hPa NNW 4.8 km/h 20.9 km/h 33% 0 mm 723 W/m2
14:00 30 °C 11.9 °C 1015.8 hPa NNW 3.2 km/h 20.9 km/h 33% 0 mm 708 W/m2
14:10 30.1 °C 12.1 °C 1015.8 hPa North 4.8 km/h 20.9 km/h 33% 0 mm 692 W/m2
14:20 30.1 °C 12.1 °C 1015.5 hPa NNW 4.8 km/h 14.5 km/h 33% 0 mm 675 W/m2
14:30 30.2 °C 12.2 °C 1015.5 hPa NNE 8 km/h 16.1 km/h 33% 0 mm 657 W/m2
14:40 30.3 °C 12.2 °C 1015.5 hPa North 8 km/h 19.3 km/h 33% 0 mm 597 W/m2
14:50 30.3 °C 12.2 °C 1015.5 hPa North 11.3 km/h 19.3 km/h 33% 0 mm 616 W/m2
15:00 30.4 °C 12.3 °C 1015.5 hPa NNW 4.8 km/h 16.1 km/h 33% 0 mm 412 W/m2
15:10 30.4 °C 12.3 °C 1015.5 hPa North 4.8 km/h 16.1 km/h 33% 0 mm 570 W/m2
15:20 30.3 °C 12.2 °C 1015.5 hPa NNE 1.6 km/h 14.5 km/h 33% 0 mm 545 W/m2
15:30 30.4 °C 12.3 °C 1015.5 hPa North 1.6 km/h 12.9 km/h 33% 0 mm 520 W/m2
15:40 30.4 °C 12.3 °C 1015.1 hPa North 3.2 km/h 17.7 km/h 33% 0 mm 494 W/m2
15:50 30.4 °C 12.3 °C 1015.1 hPa NNE 1.6 km/h 14.5 km/h 33% 0 mm 466 W/m2
16:00 30.2 °C 12.2 °C 1015.1 hPa North 9.7 km/h 17.7 km/h 33% 0 mm 438 W/m2
16:10 30.1 °C 12.1 °C 1015.1 hPa North 8 km/h 16.1 km/h 33% 0 mm 409 W/m2
16:20 30 °C 11.9 °C 1015.1 hPa Calm   16.1 km/h 33% 0 mm 380 W/m2
16:30 29.8 °C 12.2 °C 1015.1 hPa NNW 3.2 km/h 12.9 km/h 34% 0 mm 350 W/m2
16:50 29.5 °C 12 °C 1015.1 hPa North 3.2 km/h 14.5 km/h 34% 0 mm 261 W/m2
17:00 29.3 °C 11.3 °C 1015.1 hPa North 3.2 km/h 9.7 km/h 33% 0 mm 251 W/m2
17:10 29.1 °C 11.6 °C 1015.1 hPa North 3.2 km/h 9.7 km/h 34% 0 mm 219 W/m2
17:20 28.9 °C 11.4 °C 1015.1 hPa North 1.6 km/h 11.3 km/h 34% 0 mm 186 W/m2
17:30 28.6 °C 11.2 °C 1015.1 hPa NNE 1.6 km/h 9.7 km/h 34% 0 mm 153 W/m2
17:40 28.4 °C 11.4 °C 1015.1 hPa NNE 3.2 km/h 8 km/h 35% 0 mm 96 W/m2
17:50 27.9 °C 11.1 °C 1015.1 hPa NNE 1.6 km/h 11.3 km/h 35% 0 mm 95 W/m2
18:00 27.5 °C 11.5 °C 1015.1 hPa NNW 1.6 km/h 11.3 km/h 37% 0 mm 51 W/m2
18:10 27 °C 11.1 °C 1015.1 hPa WSW 1.6 km/h 8 km/h 37% 0 mm 35 W/m2
18:20 26.5 °C 11 °C 1015.1 hPa Calm   6.4 km/h 38% 0 mm 26 W/m2
18:30 26 °C 10.9 °C 1015.1 hPa Calm   8 km/h 39% 0 mm 17 W/m2
18:40 25.4 °C 10.8 °C 1015.1 hPa NNW 1.6 km/h 4.8 km/h 40% 0 mm 4 W/m2
18:50 24.8 °C 11 °C 1015.5 hPa Calm   3.2 km/h 42% 0 mm 0 W/m2
19:00 24 °C 10.7 °C 1015.5 hPa North 1.6 km/h 4.8 km/h 43% 0 mm 0 W/m2
19:10 23.5 °C 10.6 °C 1015.5 hPa Calm   3.2 km/h 44% 0 mm 0 W/m2
19:20 23 °C 10.4 °C 1015.5 hPa SSW 1.6 km/h 3.2 km/h 45% 0 mm 0 W/m2
19:30 22.4 °C 10.6 °C 1015.5 hPa WSW 3.2 km/h 4.8 km/h 47% 0 mm 0 W/m2
19:40 21.8 °C 10.3 °C 1015.8 hPa West 3.2 km/h 3.2 km/h 48% 0 mm 0 W/m2
19:50 21.2 °C 10.4 °C 1015.8 hPa WSW 3.2 km/h 6.4 km/h 50% 0 mm 0 W/m2
20:00 20.6 °C 10.4 °C 1015.8 hPa WSW 4.8 km/h 6.4 km/h 52% 0 mm 0 W/m2
20:10 19.9 °C 10.1 °C 1015.8 hPa West 4.8 km/h 8 km/h 53% 0 mm 0 W/m2
20:20 19.4 °C 9.9 °C 1016.1 hPa WNW 3.2 km/h 8 km/h 54% 0 mm 0 W/m2
20:30 19.1 °C 9.6 °C 1016.1 hPa WNW 3.2 km/h 8 km/h 54% 0 mm 0 W/m2
20:40 18.8 °C 9.6 °C 1016.1 hPa West 3.2 km/h 6.4 km/h 55% 0 mm 0 W/m2
20:50 18.4 °C 9.7 °C 1016.5 hPa WSW 3.2 km/h 4.8 km/h 57% 0 mm 0 W/m2
21:00 17.9 °C 9.6 °C 1016.5 hPa WSW 3.2 km/h 4.8 km/h 58% 0 mm 0 W/m2
21:10 17.6 °C 9.2 °C 1016.5 hPa Calm   6.4 km/h 58% 0 mm 0 W/m2
21:20 17.3 °C 9.2 °C 1016.5 hPa WNW 3.2 km/h 8 km/h 59% 0 mm 0 W/m2
21:30 16.9 °C 9.1 °C 1016.8 hPa West 1.6 km/h 6.4 km/h 60% 0 mm 0 W/m2
21:40 16.6 °C 8.8 °C 1016.8 hPa Calm   3.2 km/h 60% 0 mm 0 W/m2
21:50 16.3 °C 9 °C 1016.8 hPa Calm   1.6 km/h 62% 0 mm 0 W/m2
22:00 16.1 °C 9.1 °C 1016.8 hPa SW 1.6 km/h 8 km/h 63% 0 mm 0 W/m2
22:10 16 °C 8.9 °C 1017.2 hPa Calm   6.4 km/h 63% 0 mm 0 W/m2
22:20 15.9 °C 8.8 °C 1017.2 hPa Calm   3.2 km/h 63% 0 mm 0 W/m2
22:30 15.7 °C 8.9 °C 1017.2 hPa NW 1.6 km/h 3.2 km/h 64% 0 mm 0 W/m2
22:40 15.5 °C 8.7 °C 1017.2 hPa West 1.6 km/h 4.8 km/h 64% 0 mm 0 W/m2
22:50 15.4 °C 8.6 °C 1017.2 hPa Calm   4.8 km/h 64% 0 mm 0 W/m2
23:00 15.2 °C 8.7 °C 1017.2 hPa Calm   1.6 km/h 65% 0 mm 0 W/m2
23:10 14.7 °C 8.7 °C 1017.2 hPa Calm   1.6 km/h 67% 0 mm 0 W/m2
23:20 14.4 °C 8.3 °C 1017.2 hPa Calm   3.2 km/h 67% 0 mm 0 W/m2
23:30 14.1 °C 8.3 °C 1017.2 hPa West 1.6 km/h 4.8 km/h 68% 0 mm 0 W/m2
23:40 14 °C 8.2 °C 1017.2 hPa WNW 3.2 km/h 6.4 km/h 68% 0 mm 0 W/m2
23:50 13.9 °C 8.3 °C 1017.5 hPa NW 1.6 km/h 4.8 km/h 69% 0 mm 0 W/m2
Knjazevac, Serbia
Compliments of Weather Underground - 2 mb